createdAt,value
2018-12-20T00:01:13.000Z,30
2018-12-20T00:02:13.000Z,30
2018-12-20T00:03:13.000Z,30
2018-12-20T00:05:13.000Z,30
2018-12-20T00:07:13.000Z,30
2018-12-20T00:09:13.000Z,30
2018-12-20T00:10:13.000Z,30
2018-12-20T00:12:13.000Z,30
2018-12-20T00:13:13.000Z,30
2018-12-20T00:14:13.000Z,30
2018-12-20T00:15:13.000Z,30
2018-12-20T00:16:13.000Z,30
2018-12-20T00:17:13.000Z,30
2018-12-20T00:18:13.000Z,30
2018-12-20T00:19:13.000Z,30
2018-12-20T00:20:13.000Z,30
2018-12-20T00:21:13.000Z,30
2018-12-20T00:22:13.000Z,30
2018-12-20T00:23:13.000Z,30
2018-12-20T00:24:13.000Z,30
2018-12-20T00:25:13.000Z,30
2018-12-20T00:26:13.000Z,30
2018-12-20T00:27:13.000Z,30
2018-12-20T00:28:13.000Z,30
2018-12-20T00:29:13.000Z,30
2018-12-20T00:30:13.000Z,30
2018-12-20T00:31:13.000Z,30
2018-12-20T00:32:13.000Z,30
2018-12-20T00:33:13.000Z,30
2018-12-20T00:34:13.000Z,30
2018-12-20T00:35:13.000Z,30
2018-12-20T00:36:13.000Z,30
2018-12-20T00:37:13.000Z,30
2018-12-20T00:38:13.000Z,30
2018-12-20T00:39:13.000Z,30
2018-12-20T00:40:13.000Z,30
2018-12-20T00:41:13.000Z,30
2018-12-20T00:42:13.000Z,30
2018-12-20T00:43:13.000Z,30
2018-12-20T00:44:13.000Z,30
2018-12-20T00:45:13.000Z,30
2018-12-20T00:46:13.000Z,30
2018-12-20T00:47:13.000Z,30
2018-12-20T00:48:13.000Z,30
2018-12-20T00:49:13.000Z,30
2018-12-20T00:50:13.000Z,30
2018-12-20T00:51:13.000Z,30
2018-12-20T00:52:13.000Z,30
2018-12-20T00:53:13.000Z,30
2018-12-20T00:54:13.000Z,30
2018-12-20T00:55:13.000Z,30
2018-12-20T00:57:13.000Z,30
2018-12-20T00:58:13.000Z,30
2018-12-20T00:59:13.000Z,30
2018-12-20T01:00:13.000Z,30
2018-12-20T01:01:13.000Z,30
2018-12-20T01:02:13.000Z,30
2018-12-20T01:03:13.000Z,30
2018-12-20T01:04:13.000Z,30
2018-12-20T01:05:13.000Z,30
2018-12-20T01:06:13.000Z,30
2018-12-20T01:07:13.000Z,30
2018-12-20T01:08:13.000Z,30
2018-12-20T01:09:13.000Z,30
2018-12-20T01:10:13.000Z,30
2018-12-20T01:11:13.000Z,30
2018-12-20T01:13:13.000Z,30
2018-12-20T01:14:13.000Z,30
2018-12-20T01:15:13.000Z,30
2018-12-20T01:16:13.000Z,30
2018-12-20T01:17:13.000Z,30
2018-12-20T01:18:13.000Z,30
2018-12-20T01:19:13.000Z,30
2018-12-20T01:20:13.000Z,30
2018-12-20T01:21:13.000Z,30
2018-12-20T01:22:13.000Z,30
2018-12-20T01:23:13.000Z,30
2018-12-20T01:24:13.000Z,30
2018-12-20T01:25:13.000Z,30
2018-12-20T01:26:13.000Z,30
2018-12-20T01:27:13.000Z,30
2018-12-20T01:28:13.000Z,30
2018-12-20T01:30:13.000Z,30
2018-12-20T01:31:13.000Z,30
2018-12-20T01:32:13.000Z,30
2018-12-20T01:33:13.000Z,30
2018-12-20T01:34:13.000Z,30
2018-12-20T01:35:13.000Z,30
2018-12-20T01:36:13.000Z,30
2018-12-20T01:37:13.000Z,30
2018-12-20T01:38:13.000Z,30
2018-12-20T01:39:13.000Z,30
2018-12-20T01:40:13.000Z,30
2018-12-20T01:41:13.000Z,30
2018-12-20T01:42:13.000Z,30
2018-12-20T01:43:13.000Z,30
2018-12-20T01:44:14.000Z,30
2018-12-20T01:46:14.000Z,30
2018-12-20T01:47:14.000Z,30
2018-12-20T01:48:14.000Z,30
2018-12-20T01:49:14.000Z,30
2018-12-20T01:50:14.000Z,30
2018-12-20T01:51:14.000Z,30
2018-12-20T01:52:14.000Z,30
2018-12-20T01:53:14.000Z,30
2018-12-20T01:54:14.000Z,30
2018-12-20T01:55:14.000Z,30
2018-12-20T01:56:14.000Z,30
2018-12-20T01:57:14.000Z,30
2018-12-20T01:58:14.000Z,30
2018-12-20T01:59:14.000Z,30
2018-12-20T02:00:14.000Z,30
2018-12-20T02:01:14.000Z,30
2018-12-20T02:02:14.000Z,30
2018-12-20T02:03:14.000Z,30
2018-12-20T02:04:14.000Z,30
2018-12-20T02:05:14.000Z,30
2018-12-20T02:06:14.000Z,30
2018-12-20T02:07:14.000Z,30
2018-12-20T02:08:14.000Z,30
2018-12-20T02:09:14.000Z,30
2018-12-20T02:10:14.000Z,30
2018-12-20T02:11:14.000Z,30
2018-12-20T02:12:14.000Z,30
2018-12-20T02:13:14.000Z,30
2018-12-20T02:15:14.000Z,30
2018-12-20T02:16:14.000Z,30
2018-12-20T02:17:14.000Z,30
2018-12-20T02:18:14.000Z,30
2018-12-20T02:19:14.000Z,30
2018-12-20T02:20:14.000Z,30
2018-12-20T02:21:14.000Z,30
2018-12-20T02:22:14.000Z,30
2018-12-20T02:23:14.000Z,30
2018-12-20T02:24:14.000Z,30
2018-12-20T02:25:14.000Z,30
2018-12-20T02:26:14.000Z,30
2018-12-20T02:27:14.000Z,30
2018-12-20T02:29:14.000Z,30
2018-12-20T02:30:14.000Z,30
2018-12-20T02:31:14.000Z,30
2018-12-20T02:32:14.000Z,30
2018-12-20T02:33:14.000Z,30
2018-12-20T02:34:14.000Z,30
2018-12-20T02:35:14.000Z,30
2018-12-20T02:36:14.000Z,30
2018-12-20T02:37:14.000Z,30
2018-12-20T02:38:14.000Z,30
2018-12-20T02:39:14.000Z,30
2018-12-20T02:40:14.000Z,30
2018-12-20T02:41:14.000Z,30
2018-12-20T02:42:14.000Z,30
2018-12-20T02:43:14.000Z,30
2018-12-20T02:44:14.000Z,30
2018-12-20T02:45:14.000Z,30
2018-12-20T02:46:14.000Z,30
2018-12-20T02:47:14.000Z,30
2018-12-20T02:48:14.000Z,30
2018-12-20T02:49:14.000Z,30
2018-12-20T02:50:14.000Z,30
2018-12-20T02:51:14.000Z,30
2018-12-20T02:52:14.000Z,30
2018-12-20T02:53:14.000Z,30
2018-12-20T02:54:14.000Z,30
2018-12-20T02:55:14.000Z,30
2018-12-20T02:57:14.000Z,30
2018-12-20T02:59:14.000Z,30
2018-12-20T03:00:14.000Z,30
2018-12-20T03:01:14.000Z,30
2018-12-20T03:02:14.000Z,30
2018-12-20T03:03:14.000Z,30
2018-12-20T03:04:14.000Z,30
2018-12-20T03:05:14.000Z,30
2018-12-20T03:06:14.000Z,30
2018-12-20T03:07:14.000Z,30
2018-12-20T03:08:14.000Z,30
2018-12-20T03:09:14.000Z,30
2018-12-20T03:10:14.000Z,30
2018-12-20T03:11:14.000Z,30
2018-12-20T03:12:14.000Z,30
2018-12-20T03:13:14.000Z,30
2018-12-20T03:14:14.000Z,30
2018-12-20T03:16:14.000Z,30
2018-12-20T03:17:14.000Z,30
2018-12-20T03:18:14.000Z,30
2018-12-20T03:19:14.000Z,30
2018-12-20T03:20:14.000Z,30
2018-12-20T03:21:14.000Z,30
2018-12-20T03:22:14.000Z,30
2018-12-20T03:23:14.000Z,30
2018-12-20T03:24:14.000Z,30
2018-12-20T03:26:14.000Z,30
2018-12-20T03:27:14.000Z,30
2018-12-20T03:28:14.000Z,30
2018-12-20T03:29:14.000Z,30
2018-12-20T03:30:14.000Z,30
2018-12-20T03:31:14.000Z,31
2018-12-20T03:32:14.000Z,30
2018-12-20T03:33:14.000Z,31
2018-12-20T03:34:14.000Z,30
2018-12-20T03:35:14.000Z,31
2018-12-20T03:36:14.000Z,30
2018-12-20T03:37:14.000Z,30
2018-12-20T03:38:14.000Z,30
2018-12-20T03:39:14.000Z,30
2018-12-20T03:40:14.000Z,30
2018-12-20T03:41:14.000Z,31
2018-12-20T03:42:14.000Z,30
2018-12-20T03:43:14.000Z,30
2018-12-20T03:44:14.000Z,30
2018-12-20T03:45:14.000Z,30
2018-12-20T03:46:14.000Z,30
2018-12-20T03:47:14.000Z,30
2018-12-20T03:48:14.000Z,30
2018-12-20T03:50:14.000Z,30
2018-12-20T03:51:14.000Z,31
2018-12-20T03:52:14.000Z,30
2018-12-20T03:54:14.000Z,30
2018-12-20T03:55:13.000Z,30
2018-12-20T03:57:13.000Z,30
2018-12-20T03:58:13.000Z,31
2018-12-20T03:59:13.000Z,30
2018-12-20T04:00:13.000Z,30
2018-12-20T04:01:13.000Z,30
2018-12-20T04:02:13.000Z,30
2018-12-20T04:03:13.000Z,30
2018-12-20T04:04:13.000Z,30
2018-12-20T04:05:13.000Z,30
2018-12-20T04:06:13.000Z,30
2018-12-20T04:07:13.000Z,30
2018-12-20T04:08:13.000Z,30
2018-12-20T04:09:13.000Z,30
2018-12-20T04:10:13.000Z,30
2018-12-20T04:11:13.000Z,30
2018-12-20T04:12:13.000Z,30
2018-12-20T04:14:13.000Z,30
2018-12-20T04:15:13.000Z,30
2018-12-20T04:17:13.000Z,30
2018-12-20T04:18:13.000Z,30
2018-12-20T04:19:13.000Z,30
2018-12-20T04:20:13.000Z,31
2018-12-20T04:21:13.000Z,31
2018-12-20T04:22:13.000Z,31
2018-12-20T04:23:13.000Z,31
2018-12-20T04:25:13.000Z,31
2018-12-20T04:26:13.000Z,31
2018-12-20T04:27:13.000Z,31
2018-12-20T04:28:13.000Z,31
2018-12-20T04:29:13.000Z,31
2018-12-20T04:30:13.000Z,31
2018-12-20T04:32:13.000Z,31
2018-12-20T04:33:13.000Z,31
2018-12-20T04:34:13.000Z,31
2018-12-20T04:35:13.000Z,31
2018-12-20T04:37:13.000Z,31
2018-12-20T04:38:13.000Z,31
2018-12-20T04:40:13.000Z,31
2018-12-20T04:41:13.000Z,31
2018-12-20T04:42:13.000Z,31
2018-12-20T04:44:13.000Z,31
2018-12-20T04:45:13.000Z,31
2018-12-20T04:46:13.000Z,30
2018-12-20T04:48:13.000Z,30
2018-12-20T04:49:13.000Z,30
2018-12-20T04:51:13.000Z,31
2018-12-20T04:52:13.000Z,31
2018-12-20T04:54:13.000Z,30
2018-12-20T04:55:13.000Z,31
2018-12-20T04:56:13.000Z,30
2018-12-20T04:58:13.000Z,30
2018-12-20T04:59:13.000Z,31
2018-12-20T05:00:13.000Z,30
2018-12-20T05:01:13.000Z,31
2018-12-20T05:02:13.000Z,30
2018-12-20T05:03:13.000Z,31
2018-12-20T05:04:13.000Z,31
2018-12-20T05:05:13.000Z,30
2018-12-20T05:06:13.000Z,30
2018-12-20T05:08:13.000Z,30
2018-12-20T05:09:13.000Z,30
2018-12-20T05:10:13.000Z,30
2018-12-20T05:11:13.000Z,30
2018-12-20T05:12:13.000Z,30
2018-12-20T05:13:13.000Z,30
2018-12-20T05:14:13.000Z,30
2018-12-20T05:15:13.000Z,30
2018-12-20T05:16:13.000Z,30
2018-12-20T05:17:13.000Z,30
2018-12-20T05:19:13.000Z,30
2018-12-20T05:20:13.000Z,30
2018-12-20T05:21:13.000Z,31
2018-12-20T05:23:13.000Z,31
2018-12-20T05:24:13.000Z,32
2018-12-20T05:25:13.000Z,32
2018-12-20T05:27:13.000Z,32
2018-12-20T05:28:13.000Z,33
2018-12-20T05:29:13.000Z,33
2018-12-20T05:30:13.000Z,33
2018-12-20T05:31:13.000Z,33
2018-12-20T05:33:13.000Z,34
2018-12-20T05:34:13.000Z,34
2018-12-20T05:36:13.000Z,34
2018-12-20T05:37:13.000Z,34
2018-12-20T05:38:13.000Z,34
2018-12-20T05:39:13.000Z,34
2018-12-20T05:40:13.000Z,34
2018-12-20T05:42:13.000Z,34
2018-12-20T05:43:13.000Z,34
2018-12-20T05:44:13.000Z,34
2018-12-20T05:46:13.000Z,34
2018-12-20T05:47:13.000Z,35
2018-12-20T05:48:13.000Z,35
2018-12-20T05:49:13.000Z,35
2018-12-20T05:50:13.000Z,35
2018-12-20T05:51:13.000Z,35
2018-12-20T05:52:13.000Z,34
2018-12-20T05:53:13.000Z,35
2018-12-20T05:54:13.000Z,34
2018-12-20T05:55:13.000Z,34
2018-12-20T05:56:13.000Z,34
2018-12-20T05:57:13.000Z,34
2018-12-20T05:58:13.000Z,34
2018-12-20T05:59:13.000Z,34
2018-12-20T06:01:13.000Z,34
2018-12-20T06:02:13.000Z,34
2018-12-20T06:03:13.000Z,34
2018-12-20T06:04:13.000Z,34
2018-12-20T06:05:13.000Z,34
2018-12-20T06:06:14.000Z,34
2018-12-20T06:07:14.000Z,34
2018-12-20T06:08:14.000Z,34
2018-12-20T06:09:14.000Z,34
2018-12-20T06:11:14.000Z,34
2018-12-20T06:12:14.000Z,34
2018-12-20T06:13:14.000Z,34
2018-12-20T06:14:14.000Z,34
2018-12-20T06:16:14.000Z,34
2018-12-20T06:17:14.000Z,34
2018-12-20T06:18:14.000Z,34
2018-12-20T06:19:14.000Z,34
2018-12-20T06:21:14.000Z,34
2018-12-20T06:22:14.000Z,34
2018-12-20T06:23:14.000Z,34
2018-12-20T06:25:14.000Z,34
2018-12-20T06:26:14.000Z,34
2018-12-20T06:27:14.000Z,33
2018-12-20T06:28:14.000Z,34
2018-12-20T06:30:14.000Z,33
2018-12-20T06:31:14.000Z,33
2018-12-20T06:32:14.000Z,34
2018-12-20T06:33:14.000Z,33
2018-12-20T06:34:14.000Z,33
2018-12-20T06:35:14.000Z,33
2018-12-20T06:36:14.000Z,33
2018-12-20T06:38:14.000Z,33
2018-12-20T06:39:14.000Z,33
2018-12-20T06:40:14.000Z,33
2018-12-20T06:41:14.000Z,33
2018-12-20T06:42:14.000Z,33
2018-12-20T06:43:14.000Z,33
2018-12-20T06:44:14.000Z,33
2018-12-20T06:45:14.000Z,32
2018-12-20T06:46:14.000Z,32
2018-12-20T06:47:14.000Z,32
2018-12-20T06:48:14.000Z,32
2018-12-20T06:50:14.000Z,32
2018-12-20T06:51:14.000Z,32
2018-12-20T06:52:14.000Z,32
2018-12-20T06:53:14.000Z,32
2018-12-20T06:54:14.000Z,32
2018-12-20T06:55:14.000Z,32
2018-12-20T06:56:14.000Z,32
2018-12-20T06:57:14.000Z,32
2018-12-20T06:58:14.000Z,32
2018-12-20T06:59:14.000Z,32
2018-12-20T07:00:14.000Z,32
2018-12-20T07:01:14.000Z,32
2018-12-20T07:02:14.000Z,32
2018-12-20T07:03:14.000Z,32
2018-12-20T07:04:14.000Z,31
2018-12-20T07:05:14.000Z,31
2018-12-20T07:06:14.000Z,31
2018-12-20T07:07:14.000Z,31
2018-12-20T07:08:14.000Z,31
2018-12-20T07:09:14.000Z,31
2018-12-20T07:10:14.000Z,31
2018-12-20T07:11:14.000Z,31
2018-12-20T07:13:14.000Z,31
2018-12-20T07:14:14.000Z,31
2018-12-20T07:15:14.000Z,31
2018-12-20T07:16:14.000Z,31
2018-12-20T07:17:14.000Z,32
2018-12-20T07:18:14.000Z,32
2018-12-20T07:19:14.000Z,32
2018-12-20T07:21:14.000Z,32
2018-12-20T07:22:14.000Z,32
2018-12-20T07:23:14.000Z,32
2018-12-20T07:24:14.000Z,32
2018-12-20T07:25:14.000Z,32
2018-12-20T07:26:14.000Z,32
2018-12-20T07:27:14.000Z,32
2018-12-20T07:28:14.000Z,32
2018-12-20T07:29:14.000Z,32
2018-12-20T07:30:14.000Z,32
2018-12-20T07:31:14.000Z,32
2018-12-20T07:33:14.000Z,32
2018-12-20T07:34:14.000Z,32
2018-12-20T07:36:14.000Z,31
2018-12-20T07:37:14.000Z,32
2018-12-20T07:38:14.000Z,32
2018-12-20T07:39:14.000Z,31
2018-12-20T07:41:14.000Z,31
2018-12-20T07:42:14.000Z,31
2018-12-20T07:43:14.000Z,31
2018-12-20T07:44:14.000Z,31
2018-12-20T07:45:14.000Z,31
2018-12-20T07:46:14.000Z,31
2018-12-20T07:47:14.000Z,31
2018-12-20T07:48:14.000Z,31
2018-12-20T07:49:14.000Z,31
2018-12-20T07:50:14.000Z,31
2018-12-20T07:51:14.000Z,31
2018-12-20T07:52:14.000Z,31
2018-12-20T07:54:14.000Z,31
2018-12-20T07:55:14.000Z,31
2018-12-20T07:57:14.000Z,30
2018-12-20T07:58:14.000Z,30
2018-12-20T07:59:14.000Z,30
2018-12-20T08:00:14.000Z,30
2018-12-20T08:01:14.000Z,30
2018-12-20T08:02:14.000Z,31
2018-12-20T08:03:14.000Z,31
2018-12-20T08:04:14.000Z,30
2018-12-20T08:05:14.000Z,30
2018-12-20T08:06:14.000Z,30
2018-12-20T08:07:14.000Z,30
2018-12-20T08:08:14.000Z,30
2018-12-20T08:09:14.000Z,30
2018-12-20T08:11:14.000Z,30
2018-12-20T08:12:14.000Z,30
2018-12-20T08:13:14.000Z,30
2018-12-20T08:14:13.000Z,30
2018-12-20T08:15:13.000Z,30
2018-12-20T08:16:13.000Z,30
2018-12-20T08:17:13.000Z,30
2018-12-20T08:19:13.000Z,30
2018-12-20T08:20:13.000Z,30
2018-12-20T08:21:13.000Z,30
2018-12-20T08:22:13.000Z,30
2018-12-20T08:24:13.000Z,30
2018-12-20T08:25:13.000Z,30
2018-12-20T08:26:13.000Z,30
2018-12-20T08:27:13.000Z,30
2018-12-20T08:28:13.000Z,30
2018-12-20T08:29:13.000Z,30
2018-12-20T08:30:13.000Z,30
2018-12-20T08:31:13.000Z,30
2018-12-20T08:32:13.000Z,30
2018-12-20T08:33:13.000Z,30
2018-12-20T08:34:13.000Z,30
2018-12-20T08:35:13.000Z,30
2018-12-20T08:36:13.000Z,30
2018-12-20T08:38:13.000Z,30
2018-12-20T08:39:13.000Z,30
2018-12-20T08:41:13.000Z,30
2018-12-20T08:42:13.000Z,30
2018-12-20T08:43:13.000Z,30
2018-12-20T08:44:13.000Z,30
2018-12-20T08:45:13.000Z,30
2018-12-20T08:46:13.000Z,30
2018-12-20T08:47:13.000Z,30
2018-12-20T08:48:13.000Z,30
2018-12-20T08:49:13.000Z,30
2018-12-20T08:51:13.000Z,30
2018-12-20T08:52:13.000Z,30
2018-12-20T08:53:13.000Z,30
2018-12-20T08:54:13.000Z,30
2018-12-20T08:55:13.000Z,30
2018-12-20T08:57:13.000Z,30
2018-12-20T08:58:13.000Z,30
2018-12-20T08:59:13.000Z,30
2018-12-20T09:00:13.000Z,30
2018-12-20T09:01:13.000Z,30
2018-12-20T09:02:13.000Z,30
2018-12-20T09:04:13.000Z,30
2018-12-20T09:05:13.000Z,30
2018-12-20T09:06:13.000Z,30
2018-12-20T09:07:13.000Z,30
2018-12-20T09:08:13.000Z,30
2018-12-20T09:10:13.000Z,29
2018-12-20T09:11:13.000Z,30
2018-12-20T09:13:13.000Z,30
2018-12-20T09:14:13.000Z,30
2018-12-20T09:15:13.000Z,30
2018-12-20T09:16:13.000Z,30
2018-12-20T09:17:13.000Z,30
2018-12-20T09:18:14.000Z,30
2018-12-20T09:20:14.000Z,29
2018-12-20T09:21:14.000Z,29
2018-12-20T09:22:14.000Z,29
2018-12-20T09:24:14.000Z,29
2018-12-20T09:25:14.000Z,29
2018-12-20T09:26:14.000Z,29
2018-12-20T09:28:14.000Z,29
2018-12-20T09:29:14.000Z,29
2018-12-20T09:30:14.000Z,29
2018-12-20T09:31:14.000Z,29
2018-12-20T09:32:14.000Z,29
2018-12-20T09:34:14.000Z,29
2018-12-20T09:35:14.000Z,29
2018-12-20T09:36:14.000Z,29
2018-12-20T09:37:14.000Z,29
2018-12-20T09:38:14.000Z,29
2018-12-20T09:39:14.000Z,29
2018-12-20T09:41:14.000Z,29
2018-12-20T09:42:14.000Z,29
2018-12-20T09:43:14.000Z,29
2018-12-20T09:45:14.000Z,29
2018-12-20T09:46:14.000Z,29
2018-12-20T09:47:14.000Z,29
2018-12-20T09:48:14.000Z,29
2018-12-20T09:49:14.000Z,29
2018-12-20T09:50:14.000Z,29
2018-12-20T09:51:14.000Z,29
2018-12-20T09:52:14.000Z,29
2018-12-20T09:54:14.000Z,29
2018-12-20T09:55:14.000Z,29
2018-12-20T09:56:14.000Z,29
2018-12-20T09:57:14.000Z,29
2018-12-20T09:58:14.000Z,29
2018-12-20T09:59:14.000Z,29
2018-12-20T10:00:14.000Z,29
2018-12-20T10:01:14.000Z,29
2018-12-20T10:02:14.000Z,29
2018-12-20T10:03:14.000Z,29
2018-12-20T10:05:14.000Z,29
2018-12-20T10:06:14.000Z,29
2018-12-20T10:07:14.000Z,29
2018-12-20T10:08:14.000Z,29
2018-12-20T10:09:14.000Z,29
2018-12-20T10:10:14.000Z,29
2018-12-20T10:11:14.000Z,29
2018-12-20T10:12:14.000Z,29
2018-12-20T10:13:14.000Z,29
2018-12-20T10:14:14.000Z,29
2018-12-20T10:15:14.000Z,29
2018-12-20T10:16:14.000Z,29
2018-12-20T10:17:14.000Z,29
2018-12-20T10:19:14.000Z,28
2018-12-20T10:20:14.000Z,28
2018-12-20T10:21:14.000Z,28
2018-12-20T10:22:14.000Z,28
2018-12-20T10:23:14.000Z,28
2018-12-20T10:24:14.000Z,28
2018-12-20T10:26:14.000Z,28
2018-12-20T10:27:14.000Z,28
2018-12-20T10:28:14.000Z,28
2018-12-20T10:30:14.000Z,28
2018-12-20T10:32:14.000Z,28
2018-12-20T10:33:14.000Z,28
2018-12-20T10:34:14.000Z,28
2018-12-20T10:36:14.000Z,28
2018-12-20T10:37:14.000Z,28
2018-12-20T10:38:14.000Z,28
2018-12-20T10:39:14.000Z,28
2018-12-20T10:40:14.000Z,28
2018-12-20T10:41:14.000Z,28
2018-12-20T10:42:14.000Z,28
2018-12-20T10:43:14.000Z,28
2018-12-20T10:44:14.000Z,28
2018-12-20T10:45:14.000Z,28
2018-12-20T10:46:14.000Z,28
2018-12-20T10:48:14.000Z,28
2018-12-20T10:49:14.000Z,28
2018-12-20T10:50:14.000Z,28
2018-12-20T10:51:14.000Z,28
2018-12-20T10:52:14.000Z,28
2018-12-20T10:53:14.000Z,28
2018-12-20T10:54:14.000Z,28
2018-12-20T10:55:14.000Z,28
2018-12-20T10:56:14.000Z,28
2018-12-20T10:57:14.000Z,28
2018-12-20T10:58:14.000Z,28
2018-12-20T10:59:14.000Z,28
2018-12-20T11:00:14.000Z,28
2018-12-20T11:01:14.000Z,28
2018-12-20T11:02:14.000Z,28
2018-12-20T11:03:14.000Z,28
2018-12-20T11:05:14.000Z,28
2018-12-20T11:06:14.000Z,28
2018-12-20T11:07:14.000Z,28
2018-12-20T11:08:14.000Z,28
2018-12-20T11:09:14.000Z,28
2018-12-20T11:10:14.000Z,28
2018-12-20T11:11:14.000Z,28
2018-12-20T11:12:14.000Z,28
2018-12-20T11:13:14.000Z,28
2018-12-20T11:14:14.000Z,28
2018-12-20T11:15:14.000Z,28
2018-12-20T11:16:14.000Z,28
2018-12-20T11:17:14.000Z,28
2018-12-20T11:19:14.000Z,28
2018-12-20T11:20:14.000Z,28
2018-12-20T11:21:14.000Z,28
2018-12-20T11:22:14.000Z,28
2018-12-20T11:23:14.000Z,28
2018-12-20T11:26:54.000Z,28
2018-12-20T11:27:54.000Z,28
2018-12-20T11:28:54.000Z,28
2018-12-20T11:30:54.000Z,28
2018-12-20T11:31:54.000Z,28
2018-12-20T11:32:54.000Z,28
2018-12-20T11:33:54.000Z,29
2018-12-20T11:34:54.000Z,29
2018-12-20T11:35:54.000Z,29
2018-12-20T11:37:54.000Z,29
2018-12-20T11:39:54.000Z,28
2018-12-20T11:40:54.000Z,28
2018-12-20T11:41:54.000Z,29
2018-12-20T11:42:54.000Z,29
2018-12-20T11:43:54.000Z,29
2018-12-20T11:44:54.000Z,29
2018-12-20T11:45:54.000Z,28
2018-12-20T11:46:54.000Z,28
2018-12-20T11:47:54.000Z,28
2018-12-20T11:48:54.000Z,28
2018-12-20T11:49:54.000Z,28
2018-12-20T11:51:54.000Z,28
2018-12-20T11:52:54.000Z,28
2018-12-20T11:53:54.000Z,28
2018-12-20T11:54:54.000Z,28
2018-12-20T11:55:54.000Z,28
2018-12-20T11:56:54.000Z,28
2018-12-20T11:57:54.000Z,28
2018-12-20T11:58:54.000Z,28
2018-12-20T11:59:54.000Z,28
2018-12-20T12:00:54.000Z,28
2018-12-20T12:01:54.000Z,28
2018-12-20T12:02:54.000Z,28
2018-12-20T12:03:54.000Z,28
2018-12-20T12:04:54.000Z,28
2018-12-20T12:05:54.000Z,28
2018-12-20T12:06:54.000Z,28
2018-12-20T12:08:54.000Z,28
2018-12-20T12:09:54.000Z,28
2018-12-20T12:10:54.000Z,28
2018-12-20T12:11:54.000Z,28
2018-12-20T12:12:54.000Z,28
2018-12-20T12:13:54.000Z,28
2018-12-20T12:14:54.000Z,28
2018-12-20T12:15:54.000Z,28
2018-12-20T12:16:54.000Z,28
2018-12-20T12:17:54.000Z,28
2018-12-20T12:18:54.000Z,28
2018-12-20T12:20:54.000Z,27
2018-12-20T12:21:54.000Z,27
2018-12-20T12:22:54.000Z,27
2018-12-20T12:23:54.000Z,27
2018-12-20T12:24:54.000Z,27
2018-12-20T12:25:54.000Z,27
2018-12-20T12:26:54.000Z,27
2018-12-20T12:27:54.000Z,27
2018-12-20T12:28:54.000Z,27
2018-12-20T12:30:54.000Z,27
2018-12-20T12:31:54.000Z,27
2018-12-20T12:32:54.000Z,27
2018-12-20T12:33:54.000Z,27
2018-12-20T12:34:54.000Z,27
2018-12-20T12:35:54.000Z,27
2018-12-20T12:36:54.000Z,27
2018-12-20T12:37:54.000Z,27
2018-12-20T12:39:54.000Z,27
2018-12-20T12:40:54.000Z,27
2018-12-20T12:41:54.000Z,27
2018-12-20T12:43:54.000Z,27
2018-12-20T12:44:54.000Z,27
2018-12-20T12:45:54.000Z,27
2018-12-20T12:47:54.000Z,27
2018-12-20T12:48:54.000Z,27
2018-12-20T12:49:54.000Z,28
2018-12-20T12:50:54.000Z,28
2018-12-20T12:51:54.000Z,28
2018-12-20T12:53:54.000Z,28
2018-12-20T12:54:54.000Z,28
2018-12-20T12:55:54.000Z,28
2018-12-20T12:56:54.000Z,28
2018-12-20T12:57:54.000Z,28
2018-12-20T12:58:54.000Z,28
2018-12-20T12:59:54.000Z,28
2018-12-20T13:00:54.000Z,28
2018-12-20T13:01:54.000Z,28
2018-12-20T13:02:54.000Z,28
2018-12-20T13:03:54.000Z,28
2018-12-20T13:43:11.000Z,30
2018-12-20T13:44:11.000Z,30
2018-12-20T13:45:11.000Z,30
2018-12-20T13:47:11.000Z,30
2018-12-20T13:48:11.000Z,30
2018-12-20T13:49:11.000Z,30
2018-12-20T13:50:11.000Z,30
2018-12-20T13:52:11.000Z,29
2018-12-20T13:54:11.000Z,29
2018-12-20T13:55:11.000Z,29
2018-12-20T13:56:11.000Z,29
2018-12-20T13:58:11.000Z,29
2018-12-20T13:59:11.000Z,29
2018-12-20T14:00:11.000Z,29
2018-12-20T14:01:11.000Z,29
2018-12-20T14:02:11.000Z,28
2018-12-20T14:03:11.000Z,28
2018-12-20T14:04:11.000Z,28
2018-12-20T14:05:11.000Z,28
2018-12-20T14:06:11.000Z,28
2018-12-20T14:07:11.000Z,28
2018-12-20T14:08:11.000Z,28
2018-12-20T14:09:11.000Z,28
2018-12-20T14:10:11.000Z,28
2018-12-20T14:11:11.000Z,28
2018-12-20T14:12:11.000Z,28
2018-12-20T14:13:11.000Z,28
2018-12-20T14:14:11.000Z,28
2018-12-20T14:15:11.000Z,28
2018-12-20T14:16:11.000Z,28
2018-12-20T14:17:11.000Z,28
2018-12-20T14:19:11.000Z,28
2018-12-20T14:21:11.000Z,28
2018-12-20T14:22:11.000Z,28
2018-12-20T14:23:11.000Z,28
2018-12-20T14:24:11.000Z,28
2018-12-20T14:25:11.000Z,28
2018-12-20T14:26:11.000Z,28
2018-12-20T14:27:11.000Z,28
2018-12-20T14:28:11.000Z,28
2018-12-20T14:29:11.000Z,28
2018-12-20T14:30:11.000Z,28
2018-12-20T14:31:11.000Z,28
2018-12-20T14:32:11.000Z,28
2018-12-20T14:33:11.000Z,28
2018-12-20T14:34:11.000Z,28
2018-12-20T14:35:11.000Z,28
2018-12-20T14:36:11.000Z,28
2018-12-20T14:37:11.000Z,28
2018-12-20T14:38:11.000Z,28
2018-12-20T14:39:11.000Z,28
2018-12-20T14:40:11.000Z,28
2018-12-20T14:42:11.000Z,28
2018-12-20T14:43:11.000Z,28
2018-12-20T14:44:11.000Z,28
2018-12-20T14:45:11.000Z,28
2018-12-20T14:46:11.000Z,28
2018-12-20T14:47:11.000Z,28
2018-12-20T14:49:11.000Z,28
2018-12-20T14:50:11.000Z,28
2018-12-20T14:51:11.000Z,28
2018-12-20T14:53:11.000Z,28
2018-12-20T14:54:11.000Z,28
2018-12-20T14:55:11.000Z,28
2018-12-20T14:56:11.000Z,28
2018-12-20T14:58:11.000Z,28
2018-12-20T14:59:11.000Z,28
2018-12-20T15:00:11.000Z,28
2018-12-20T15:01:11.000Z,28
2018-12-20T15:02:11.000Z,28
2018-12-20T15:03:11.000Z,28
2018-12-20T15:04:11.000Z,28
2018-12-20T15:06:11.000Z,28
2018-12-20T15:07:11.000Z,28
2018-12-20T15:08:11.000Z,28
2018-12-20T15:10:11.000Z,28
2018-12-20T15:11:11.000Z,28
2018-12-20T15:12:11.000Z,28
2018-12-20T15:13:11.000Z,28
2018-12-20T15:14:11.000Z,28
2018-12-20T15:15:11.000Z,28
2018-12-20T15:17:11.000Z,28
2018-12-20T15:18:11.000Z,28
2018-12-20T15:20:11.000Z,28
2018-12-20T15:21:11.000Z,28
2018-12-20T15:23:11.000Z,28
2018-12-20T15:24:11.000Z,28
2018-12-20T15:25:11.000Z,29
2018-12-20T15:26:11.000Z,29
2018-12-20T15:27:11.000Z,28
2018-12-20T15:28:11.000Z,29
2018-12-20T15:30:11.000Z,29
2018-12-20T15:31:11.000Z,29
2018-12-20T15:33:11.000Z,29
2018-12-20T15:35:11.000Z,29
2018-12-20T15:36:11.000Z,29
2018-12-20T15:37:11.000Z,29
2018-12-20T15:38:11.000Z,29
2018-12-20T15:39:11.000Z,29
2018-12-20T15:40:11.000Z,29
2018-12-20T15:41:11.000Z,29
2018-12-20T15:42:11.000Z,29
2018-12-20T15:44:11.000Z,29
2018-12-20T15:45:11.000Z,29
2018-12-20T15:46:11.000Z,29
2018-12-20T15:47:11.000Z,29
2018-12-20T15:48:11.000Z,29
2018-12-20T15:49:11.000Z,29
2018-12-20T15:50:11.000Z,29
2018-12-20T15:51:11.000Z,29
2018-12-20T15:52:11.000Z,29
2018-12-20T15:53:11.000Z,29
2018-12-20T15:54:11.000Z,29
2018-12-20T15:55:11.000Z,29
2018-12-20T15:56:11.000Z,29
2018-12-20T15:58:11.000Z,29
2018-12-20T15:59:11.000Z,29
2018-12-20T16:01:11.000Z,29
2018-12-20T16:02:11.000Z,29
2018-12-20T16:03:11.000Z,29
2018-12-20T16:04:11.000Z,29
2018-12-20T16:05:11.000Z,29
2018-12-20T16:06:11.000Z,29
2018-12-20T16:07:11.000Z,29
2018-12-20T16:08:11.000Z,30
2018-12-20T16:09:11.000Z,29
2018-12-20T16:11:11.000Z,29
2018-12-20T16:12:11.000Z,30
2018-12-20T16:13:11.000Z,30
2018-12-20T16:14:11.000Z,29
2018-12-20T16:15:11.000Z,30
2018-12-20T16:16:11.000Z,30
2018-12-20T16:17:11.000Z,30
2018-12-20T16:18:11.000Z,30
2018-12-20T16:19:11.000Z,29
2018-12-20T16:20:11.000Z,30
2018-12-20T16:22:11.000Z,29
2018-12-20T16:23:11.000Z,30
2018-12-20T16:24:11.000Z,30
2018-12-20T16:25:11.000Z,30
2018-12-20T16:26:11.000Z,30
2018-12-20T16:27:11.000Z,30
2018-12-20T16:28:11.000Z,30
2018-12-20T16:29:11.000Z,30
2018-12-20T16:30:11.000Z,30
2018-12-20T16:31:11.000Z,30
2018-12-20T16:32:11.000Z,30
2018-12-20T16:33:11.000Z,30
2018-12-20T16:34:11.000Z,30
2018-12-20T16:36:11.000Z,30
2018-12-20T16:37:11.000Z,30
2018-12-20T16:38:11.000Z,30
2018-12-20T16:39:11.000Z,30
2018-12-20T16:40:11.000Z,30
2018-12-20T16:42:11.000Z,30
2018-12-20T16:43:12.000Z,30
2018-12-20T16:44:12.000Z,30
2018-12-20T16:45:12.000Z,30
2018-12-20T16:46:12.000Z,30
2018-12-20T16:47:12.000Z,30
2018-12-20T16:48:12.000Z,30
2018-12-20T16:49:12.000Z,30
2018-12-20T16:50:12.000Z,30